sensor_id;sensor_type;location;lat;lon;timestamp;temperature;humidity
23156;DHT22;11746;50.876;4.246;2023-09-18T00:00:30;22.70;99.90
23156;DHT22;11746;50.876;4.246;2023-09-18T00:02:58;22.70;99.90
23156;DHT22;11746;50.876;4.246;2023-09-18T00:05:28;22.70;99.90
23156;DHT22;11746;50.876;4.246;2023-09-18T00:07:54;22.70;99.90
23156;DHT22;11746;50.876;4.246;2023-09-18T00:10:26;22.50;99.90
23156;DHT22;11746;50.876;4.246;2023-09-18T00:12:54;22.60;99.90
23156;DHT22;11746;50.876;4.246;2023-09-18T00:15:20;22.40;99.90
23156;DHT22;11746;50.876;4.246;2023-09-18T00:17:46;22.50;99.90
23156;DHT22;11746;50.876;4.246;2023-09-18T00:20:11;22.40;99.90
23156;DHT22;11746;50.876;4.246;2023-09-18T00:22:39;22.20;99.90
23156;DHT22;11746;50.876;4.246;2023-09-18T00:25:05;22.30;99.90
23156;DHT22;11746;50.876;4.246;2023-09-18T00:27:31;22.20;99.90
23156;DHT22;11746;50.876;4.246;2023-09-18T00:29:58;22.00;99.90
23156;DHT22;11746;50.876;4.246;2023-09-18T00:32:27;22.00;99.90
23156;DHT22;11746;50.876;4.246;2023-09-18T00:34:56;21.90;99.90
23156;DHT22;11746;50.876;4.246;2023-09-18T00:37:21;21.60;99.90
23156;DHT22;11746;50.876;4.246;2023-09-18T00:39:47;21.40;99.90
23156;DHT22;11746;50.876;4.246;2023-09-18T00:42:16;21.20;99.90
23156;DHT22;11746;50.876;4.246;2023-09-18T00:44:45;21.10;99.90
23156;DHT22;11746;50.876;4.246;2023-09-18T00:47:14;21.00;99.90
23156;DHT22;11746;50.876;4.246;2023-09-18T00:49:41;21.00;99.90
23156;DHT22;11746;50.876;4.246;2023-09-18T00:52:09;20.90;99.90
23156;DHT22;11746;50.876;4.246;2023-09-18T00:54:37;20.80;99.90
23156;DHT22;11746;50.876;4.246;2023-09-18T00:57:04;20.80;99.90
23156;DHT22;11746;50.876;4.246;2023-09-18T00:59:33;20.80;99.90
23156;DHT22;11746;50.876;4.246;2023-09-18T01:01:59;20.80;99.90
23156;DHT22;11746;50.876;4.246;2023-09-18T01:04:28;20.80;99.90
23156;DHT22;11746;50.876;4.246;2023-09-18T01:06:55;20.80;99.90
23156;DHT22;11746;50.876;4.246;2023-09-18T01:09:23;20.80;99.90
23156;DHT22;11746;50.876;4.246;2023-09-18T01:12:00;20.80;99.90
23156;DHT22;11746;50.876;4.246;2023-09-18T01:14:33;20.70;99.90
23156;DHT22;11746;50.876;4.246;2023-09-18T01:17:05;21.00;99.90
23156;DHT22;11746;50.876;4.246;2023-09-18T01:22:06;21.00;99.90
23156;DHT22;11746;50.876;4.246;2023-09-18T01:24:35;21.10;99.90
23156;DHT22;11746;50.876;4.246;2023-09-18T01:27:02;21.10;99.90
23156;DHT22;11746;50.876;4.246;2023-09-18T01:29:32;21.00;99.90
23156;DHT22;11746;50.876;4.246;2023-09-18T01:31:57;21.00;99.90
23156;DHT22;11746;50.876;4.246;2023-09-18T01:34:38;20.90;99.90
23156;DHT22;11746;50.876;4.246;2023-09-18T01:37:07;20.90;99.90
23156;DHT22;11746;50.876;4.246;2023-09-18T01:39:35;21.00;99.90
23156;DHT22;11746;50.876;4.246;2023-09-18T01:42:05;21.00;99.90
23156;DHT22;11746;50.876;4.246;2023-09-18T01:44:33;21.10;99.90
23156;DHT22;11746;50.876;4.246;2023-09-18T01:47:02;21.10;99.90
23156;DHT22;11746;50.876;4.246;2023-09-18T01:49:46;21.00;99.90
23156;DHT22;11746;50.876;4.246;2023-09-18T01:52:12;21.10;99.90
23156;DHT22;11746;50.876;4.246;2023-09-18T01:54:38;21.10;99.90
23156;DHT22;11746;50.876;4.246;2023-09-18T01:57:04;21.10;99.90
23156;DHT22;11746;50.876;4.246;2023-09-18T01:59:30;21.20;99.90
23156;DHT22;11746;50.876;4.246;2023-09-18T02:01:56;21.20;99.90
23156;DHT22;11746;50.876;4.246;2023-09-18T02:04:22;21.10;99.90
23156;DHT22;11746;50.876;4.246;2023-09-18T02:06:49;21.10;99.90
23156;DHT22;11746;50.876;4.246;2023-09-18T02:09:16;21.10;99.90
23156;DHT22;11746;50.876;4.246;2023-09-18T02:11:43;21.30;99.90
23156;DHT22;11746;50.876;4.246;2023-09-18T02:14:10;21.30;99.90
23156;DHT22;11746;50.876;4.246;2023-09-18T02:16:42;21.20;99.90
23156;DHT22;11746;50.876;4.246;2023-09-18T02:19:16;21.20;99.90
23156;DHT22;11746;50.876;4.246;2023-09-18T02:21:45;21.20;99.90
23156;DHT22;11746;50.876;4.246;2023-09-18T02:24:11;21.20;99.90
23156;DHT22;11746;50.876;4.246;2023-09-18T02:26:37;21.20;99.90
23156;DHT22;11746;50.876;4.246;2023-09-18T02:29:06;21.10;99.90
23156;DHT22;11746;50.876;4.246;2023-09-18T02:31:31;21.20;99.90
23156;DHT22;11746;50.876;4.246;2023-09-18T02:33:57;21.20;99.90
23156;DHT22;11746;50.876;4.246;2023-09-18T02:36:23;21.10;99.90
23156;DHT22;11746;50.876;4.246;2023-09-18T02:38:49;21.10;99.90
23156;DHT22;11746;50.876;4.246;2023-09-18T02:41:16;21.20;99.90
23156;DHT22;11746;50.876;4.246;2023-09-18T02:43:42;21.10;99.90
23156;DHT22;11746;50.876;4.246;2023-09-18T02:46:12;21.00;99.90
23156;DHT22;11746;50.876;4.246;2023-09-18T02:48:38;21.00;99.90
23156;DHT22;11746;50.876;4.246;2023-09-18T02:51:04;21.10;99.90
23156;DHT22;11746;50.876;4.246;2023-09-18T02:53:33;21.00;99.90
23156;DHT22;11746;50.876;4.246;2023-09-18T02:55:59;21.00;99.90
23156;DHT22;11746;50.876;4.246;2023-09-18T02:58:27;20.90;99.90
23156;DHT22;11746;50.876;4.246;2023-09-18T03:00:57;20.80;99.90
23156;DHT22;11746;50.876;4.246;2023-09-18T03:03:28;20.90;99.90
23156;DHT22;11746;50.876;4.246;2023-09-18T03:06:03;20.90;99.90
23156;DHT22;11746;50.876;4.246;2023-09-18T03:08:30;20.90;99.90
23156;DHT22;11746;50.876;4.246;2023-09-18T03:11:00;20.90;99.90
23156;DHT22;11746;50.876;4.246;2023-09-18T03:13:30;20.90;99.90
23156;DHT22;11746;50.876;4.246;2023-09-18T03:15:58;20.90;99.90
23156;DHT22;11746;50.876;4.246;2023-09-18T03:18:24;20.80;99.90
23156;DHT22;11746;50.876;4.246;2023-09-18T03:20:51;20.80;99.90
23156;DHT22;11746;50.876;4.246;2023-09-18T03:23:17;20.90;99.90
23156;DHT22;11746;50.876;4.246;2023-09-18T03:25:43;20.90;99.90
23156;DHT22;11746;50.876;4.246;2023-09-18T03:28:11;20.90;99.90
23156;DHT22;11746;50.876;4.246;2023-09-18T03:30:39;20.90;99.90
23156;DHT22;11746;50.876;4.246;2023-09-18T03:33:04;20.90;99.90
23156;DHT22;11746;50.876;4.246;2023-09-18T03:35:31;21.00;99.90
23156;DHT22;11746;50.876;4.246;2023-09-18T03:37:59;21.00;99.90
23156;DHT22;11746;50.876;4.246;2023-09-18T03:40:29;21.10;99.90
23156;DHT22;11746;50.876;4.246;2023-09-18T03:42:57;21.00;99.90
23156;DHT22;11746;50.876;4.246;2023-09-18T03:45:22;20.90;99.90
23156;DHT22;11746;50.876;4.246;2023-09-18T03:47:50;20.90;99.90
23156;DHT22;11746;50.876;4.246;2023-09-18T03:50:16;21.00;99.90
23156;DHT22;11746;50.876;4.246;2023-09-18T03:52:42;20.90;99.90
23156;DHT22;11746;50.876;4.246;2023-09-18T03:55:08;21.00;99.90
23156;DHT22;11746;50.876;4.246;2023-09-18T03:57:34;21.00;99.90
23156;DHT22;11746;50.876;4.246;2023-09-18T04:00:04;20.70;99.90
23156;DHT22;11746;50.876;4.246;2023-09-18T04:02:30;20.70;99.90
23156;DHT22;11746;50.876;4.246;2023-09-18T04:04:58;20.60;99.90
23156;DHT22;11746;50.876;4.246;2023-09-18T04:07:23;20.60;99.90
23156;DHT22;11746;50.876;4.246;2023-09-18T04:09:49;20.60;99.90
23156;DHT22;11746;50.876;4.246;2023-09-18T04:12:17;20.60;99.90
23156;DHT22;11746;50.876;4.246;2023-09-18T04:14:43;20.40;99.90
23156;DHT22;11746;50.876;4.246;2023-09-18T04:17:08;20.40;99.90
23156;DHT22;11746;50.876;4.246;2023-09-18T04:19:39;20.30;99.90
23156;DHT22;11746;50.876;4.246;2023-09-18T04:22:07;20.20;99.90
23156;DHT22;11746;50.876;4.246;2023-09-18T04:24:33;20.10;99.90
23156;DHT22;11746;50.876;4.246;2023-09-18T04:26:59;20.10;99.90
23156;DHT22;11746;50.876;4.246;2023-09-18T04:29:29;20.10;99.90
23156;DHT22;11746;50.876;4.246;2023-09-18T04:31:55;20.00;99.90
23156;DHT22;11746;50.876;4.246;2023-09-18T04:34:21;19.90;99.90
23156;DHT22;11746;50.876;4.246;2023-09-18T04:36:48;19.90;99.90
23156;DHT22;11746;50.876;4.246;2023-09-18T04:39:13;20.00;99.90
23156;DHT22;11746;50.876;4.246;2023-09-18T04:41:41;19.80;99.90
23156;DHT22;11746;50.876;4.246;2023-09-18T04:44:11;19.80;99.90
23156;DHT22;11746;50.876;4.246;2023-09-18T04:46:39;19.80;99.90
23156;DHT22;11746;50.876;4.246;2023-09-18T04:49:07;19.90;99.90
23156;DHT22;11746;50.876;4.246;2023-09-18T04:51:33;19.80;99.90
23156;DHT22;11746;50.876;4.246;2023-09-18T04:53:59;19.80;99.90
23156;DHT22;11746;50.876;4.246;2023-09-18T04:56:32;19.60;99.90
23156;DHT22;11746;50.876;4.246;2023-09-18T04:58:57;19.60;99.90
23156;DHT22;11746;50.876;4.246;2023-09-18T05:01:25;19.60;99.90
23156;DHT22;11746;50.876;4.246;2023-09-18T05:03:54;19.60;99.90
23156;DHT22;11746;50.876;4.246;2023-09-18T05:06:20;19.50;99.90
23156;DHT22;11746;50.876;4.246;2023-09-18T05:08:46;19.40;99.90
23156;DHT22;11746;50.876;4.246;2023-09-18T05:11:14;19.30;99.90
23156;DHT22;11746;50.876;4.246;2023-09-18T05:13:39;19.30;99.90
23156;DHT22;11746;50.876;4.246;2023-09-18T05:16:05;19.30;99.90
23156;DHT22;11746;50.876;4.246;2023-09-18T05:18:33;19.40;99.90
23156;DHT22;11746;50.876;4.246;2023-09-18T05:20:59;19.40;99.90
23156;DHT22;11746;50.876;4.246;2023-09-18T05:23:24;19.30;99.90
23156;DHT22;11746;50.876;4.246;2023-09-18T05:25:50;19.20;99.90
23156;DHT22;11746;50.876;4.246;2023-09-18T05:28:18;19.20;99.90
23156;DHT22;11746;50.876;4.246;2023-09-18T05:30:44;19.10;99.90
23156;DHT22;11746;50.876;4.246;2023-09-18T05:33:12;19.10;99.90
23156;DHT22;11746;50.876;4.246;2023-09-18T05:35:43;19.10;99.90
23156;DHT22;11746;50.876;4.246;2023-09-18T05:38:12;19.10;99.90
23156;DHT22;11746;50.876;4.246;2023-09-18T05:40:43;19.10;99.90
23156;DHT22;11746;50.876;4.246;2023-09-18T05:43:09;19.10;99.90
23156;DHT22;11746;50.876;4.246;2023-09-18T05:45:35;19.00;99.90
23156;DHT22;11746;50.876;4.246;2023-09-18T05:48:01;19.00;99.90
23156;DHT22;11746;50.876;4.246;2023-09-18T05:50:32;19.00;99.90
23156;DHT22;11746;50.876;4.246;2023-09-18T05:53:00;19.00;99.90
23156;DHT22;11746;50.876;4.246;2023-09-18T05:55:32;18.80;99.90
23156;DHT22;11746;50.876;4.246;2023-09-18T05:57:58;18.90;99.90
23156;DHT22;11746;50.876;4.246;2023-09-18T06:00:24;18.90;99.90
23156;DHT22;11746;50.876;4.246;2023-09-18T06:02:52;19.00;99.90
23156;DHT22;11746;50.876;4.246;2023-09-18T06:05:18;18.90;99.90
23156;DHT22;11746;50.876;4.246;2023-09-18T06:07:50;18.80;99.90
23156;DHT22;11746;50.876;4.246;2023-09-18T06:10:18;18.80;99.90
23156;DHT22;11746;50.876;4.246;2023-09-18T06:12:44;18.80;99.90
23156;DHT22;11746;50.876;4.246;2023-09-18T06:15:13;18.80;99.90
23156;DHT22;11746;50.876;4.246;2023-09-18T06:17:40;18.80;99.90
23156;DHT22;11746;50.876;4.246;2023-09-18T06:20:06;19.00;99.90
23156;DHT22;11746;50.876;4.246;2023-09-18T06:22:39;19.00;99.90
23156;DHT22;11746;50.876;4.246;2023-09-18T06:25:06;18.80;99.90
23156;DHT22;11746;50.876;4.246;2023-09-18T06:27:34;18.80;99.90
23156;DHT22;11746;50.876;4.246;2023-09-18T06:30:04;18.70;99.90
23156;DHT22;11746;50.876;4.246;2023-09-18T06:32:32;18.80;99.90
23156;DHT22;11746;50.876;4.246;2023-09-18T06:35:00;18.80;99.90
23156;DHT22;11746;50.876;4.246;2023-09-18T06:37:26;18.80;99.90
23156;DHT22;11746;50.876;4.246;2023-09-18T06:39:52;18.80;99.90
23156;DHT22;11746;50.876;4.246;2023-09-18T06:42:18;18.70;99.90
23156;DHT22;11746;50.876;4.246;2023-09-18T06:44:45;18.70;99.90
23156;DHT22;11746;50.876;4.246;2023-09-18T06:47:13;18.70;99.90
23156;DHT22;11746;50.876;4.246;2023-09-18T06:49:40;18.80;99.90
23156;DHT22;11746;50.876;4.246;2023-09-18T06:52:09;18.80;99.90
23156;DHT22;11746;50.876;4.246;2023-09-18T06:54:40;18.90;99.90
23156;DHT22;11746;50.876;4.246;2023-09-18T06:57:06;18.90;99.90
23156;DHT22;11746;50.876;4.246;2023-09-18T06:59:36;18.90;99.90
23156;DHT22;11746;50.876;4.246;2023-09-18T07:02:02;18.90;99.90
23156;DHT22;11746;50.876;4.246;2023-09-18T07:04:28;18.90;99.90
23156;DHT22;11746;50.876;4.246;2023-09-18T07:06:58;18.90;99.90
23156;DHT22;11746;50.876;4.246;2023-09-18T07:09:24;18.90;99.90
23156;DHT22;11746;50.876;4.246;2023-09-18T07:11:49;18.90;99.90
23156;DHT22;11746;50.876;4.246;2023-09-18T07:14:17;19.00;99.90
23156;DHT22;11746;50.876;4.246;2023-09-18T07:16:43;19.00;99.90
23156;DHT22;11746;50.876;4.246;2023-09-18T07:19:13;19.10;99.90
23156;DHT22;11746;50.876;4.246;2023-09-18T07:21:42;19.20;99.90
23156;DHT22;11746;50.876;4.246;2023-09-18T07:24:07;19.10;99.90
23156;DHT22;11746;50.876;4.246;2023-09-18T07:26:36;19.10;99.90
23156;DHT22;11746;50.876;4.246;2023-09-18T07:29:04;19.20;99.90
23156;DHT22;11746;50.876;4.246;2023-09-18T07:31:29;19.30;99.90
23156;DHT22;11746;50.876;4.246;2023-09-18T07:33:55;19.40;99.90
23156;DHT22;11746;50.876;4.246;2023-09-18T07:36:23;19.20;99.90
23156;DHT22;11746;50.876;4.246;2023-09-18T07:38:51;19.40;99.90
23156;DHT22;11746;50.876;4.246;2023-09-18T07:41:19;19.30;99.90
23156;DHT22;11746;50.876;4.246;2023-09-18T07:43:49;19.30;99.90
23156;DHT22;11746;50.876;4.246;2023-09-18T07:46:14;19.50;99.90
23156;DHT22;11746;50.876;4.246;2023-09-18T07:48:42;19.60;99.90
23156;DHT22;11746;50.876;4.246;2023-09-18T07:51:14;19.60;99.90
23156;DHT22;11746;50.876;4.246;2023-09-18T07:53:43;19.70;99.90
23156;DHT22;11746;50.876;4.246;2023-09-18T07:56:09;19.80;99.90
23156;DHT22;11746;50.876;4.246;2023-09-18T07:58:35;19.80;99.90
23156;DHT22;11746;50.876;4.246;2023-09-18T08:01:05;19.70;99.90
23156;DHT22;11746;50.876;4.246;2023-09-18T08:03:34;19.80;99.90
23156;DHT22;11746;50.876;4.246;2023-09-18T08:05:59;19.80;99.90
23156;DHT22;11746;50.876;4.246;2023-09-18T08:08:30;19.80;99.90
23156;DHT22;11746;50.876;4.246;2023-09-18T08:10:58;20.00;99.90
23156;DHT22;11746;50.876;4.246;2023-09-18T08:13:26;20.00;99.90
23156;DHT22;11746;50.876;4.246;2023-09-18T08:15:51;20.10;99.90
23156;DHT22;11746;50.876;4.246;2023-09-18T08:18:20;20.00;99.90
23156;DHT22;11746;50.876;4.246;2023-09-18T08:20:48;20.00;99.90
23156;DHT22;11746;50.876;4.246;2023-09-18T08:23:14;20.00;99.90
23156;DHT22;11746;50.876;4.246;2023-09-18T08:25:44;19.90;99.90
23156;DHT22;11746;50.876;4.246;2023-09-18T08:28:10;19.80;99.90
23156;DHT22;11746;50.876;4.246;2023-09-18T08:30:43;19.80;99.90
23156;DHT22;11746;50.876;4.246;2023-09-18T08:33:13;19.80;99.90
23156;DHT22;11746;50.876;4.246;2023-09-18T08:35:41;19.70;99.90
23156;DHT22;11746;50.876;4.246;2023-09-18T08:38:14;19.80;99.90
23156;DHT22;11746;50.876;4.246;2023-09-18T08:40:43;19.90;99.90
23156;DHT22;11746;50.876;4.246;2023-09-18T08:43:10;19.80;99.90
23156;DHT22;11746;50.876;4.246;2023-09-18T08:45:53;19.80;99.90
23156;DHT22;11746;50.876;4.246;2023-09-18T08:48:20;19.80;99.90
23156;DHT22;11746;50.876;4.246;2023-09-18T08:50:48;19.90;99.90
23156;DHT22;11746;50.876;4.246;2023-09-18T08:53:16;20.00;99.90
23156;DHT22;11746;50.876;4.246;2023-09-18T08:55:42;19.90;99.90
23156;DHT22;11746;50.876;4.246;2023-09-18T08:58:10;20.10;99.90
23156;DHT22;11746;50.876;4.246;2023-09-18T09:00:41;20.10;99.90
23156;DHT22;11746;50.876;4.246;2023-09-18T09:03:07;20.10;99.90
23156;DHT22;11746;50.876;4.246;2023-09-18T09:05:33;20.10;99.90
23156;DHT22;11746;50.876;4.246;2023-09-18T09:07:59;19.90;99.90
23156;DHT22;11746;50.876;4.246;2023-09-18T09:10:26;19.90;99.90
23156;DHT22;11746;50.876;4.246;2023-09-18T09:12:55;19.90;99.90
23156;DHT22;11746;50.876;4.246;2023-09-18T09:15:29;19.80;99.90
23156;DHT22;11746;50.876;4.246;2023-09-18T09:18:07;19.70;99.90
23156;DHT22;11746;50.876;4.246;2023-09-18T09:20:34;19.60;99.90
23156;DHT22;11746;50.876;4.246;2023-09-18T09:23:08;19.50;99.90
23156;DHT22;11746;50.876;4.246;2023-09-18T09:25:35;19.50;99.90
23156;DHT22;11746;50.876;4.246;2023-09-18T09:28:05;19.50;99.90
23156;DHT22;11746;50.876;4.246;2023-09-18T09:30:32;19.60;99.90
23156;DHT22;11746;50.876;4.246;2023-09-18T09:32:59;19.70;99.90
23156;DHT22;11746;50.876;4.246;2023-09-18T09:35:33;19.70;99.90
23156;DHT22;11746;50.876;4.246;2023-09-18T09:40:32;19.70;99.90
23156;DHT22;11746;50.876;4.246;2023-09-18T09:42:59;19.80;99.90
23156;DHT22;11746;50.876;4.246;2023-09-18T09:45:29;19.80;99.90
23156;DHT22;11746;50.876;4.246;2023-09-18T09:47:56;19.70;99.90
23156;DHT22;11746;50.876;4.246;2023-09-18T09:50:23;19.60;99.90
23156;DHT22;11746;50.876;4.246;2023-09-18T09:52:52;19.60;99.90
23156;DHT22;11746;50.876;4.246;2023-09-18T09:55:36;19.50;99.90
23156;DHT22;11746;50.876;4.246;2023-09-18T09:58:05;19.50;99.90
23156;DHT22;11746;50.876;4.246;2023-09-18T10:00:31;19.50;99.90
23156;DHT22;11746;50.876;4.246;2023-09-18T10:03:04;19.50;99.90
23156;DHT22;11746;50.876;4.246;2023-09-18T10:05:36;19.60;99.90
23156;DHT22;11746;50.876;4.246;2023-09-18T10:08:08;19.70;99.90
23156;DHT22;11746;50.876;4.246;2023-09-18T10:10:42;19.70;99.90
23156;DHT22;11746;50.876;4.246;2023-09-18T10:15:42;19.70;99.90
23156;DHT22;11746;50.876;4.246;2023-09-18T10:18:20;19.60;99.90
23156;DHT22;11746;50.876;4.246;2023-09-18T10:20:51;19.60;99.90
23156;DHT22;11746;50.876;4.246;2023-09-18T10:23:57;19.60;99.90
23156;DHT22;11746;50.876;4.246;2023-09-18T10:26:23;19.70;99.90
23156;DHT22;11746;50.876;4.246;2023-09-18T10:28:56;19.60;99.90
23156;DHT22;11746;50.876;4.246;2023-09-18T10:31:26;19.50;99.90
23156;DHT22;11746;50.876;4.246;2023-09-18T10:33:57;19.40;99.90
23156;DHT22;11746;50.876;4.246;2023-09-18T10:36:24;19.50;99.90
23156;DHT22;11746;50.876;4.246;2023-09-18T10:38:51;19.60;99.90
23156;DHT22;11746;50.876;4.246;2023-09-18T10:41:21;19.80;99.90
23156;DHT22;11746;50.876;4.246;2023-09-18T10:43:55;19.80;99.90
23156;DHT22;11746;50.876;4.246;2023-09-18T10:46:24;20.00;99.90
23156;DHT22;11746;50.876;4.246;2023-09-18T10:48:50;20.30;99.90
23156;DHT22;11746;50.876;4.246;2023-09-18T10:51:23;20.40;99.90
23156;DHT22;11746;50.876;4.246;2023-09-18T10:53:51;20.60;99.90
23156;DHT22;11746;50.876;4.246;2023-09-18T10:56:20;20.80;99.90
23156;DHT22;11746;50.876;4.246;2023-09-18T10:59:01;20.90;99.90
23156;DHT22;11746;50.876;4.246;2023-09-18T11:01:30;21.10;99.90
23156;DHT22;11746;50.876;4.246;2023-09-18T11:04:20;21.20;99.90
23156;DHT22;11746;50.876;4.246;2023-09-18T11:09:25;21.50;99.90
23156;DHT22;11746;50.876;4.246;2023-09-18T11:12:03;21.60;99.90
23156;DHT22;11746;50.876;4.246;2023-09-18T11:17:37;21.50;99.90
23156;DHT22;11746;50.876;4.246;2023-09-18T11:23:15;21.10;99.90
23156;DHT22;11746;50.876;4.246;2023-09-18T11:25:42;21.00;99.90
23156;DHT22;11746;50.876;4.246;2023-09-18T11:28:29;20.90;99.90
23156;DHT22;11746;50.876;4.246;2023-09-18T11:30:58;21.00;99.90
23156;DHT22;11746;50.876;4.246;2023-09-18T11:33:39;21.10;99.90
23156;DHT22;11746;50.876;4.246;2023-09-18T11:36:13;21.10;99.90
23156;DHT22;11746;50.876;4.246;2023-09-18T11:39:00;21.30;99.90
23156;DHT22;11746;50.876;4.246;2023-09-18T11:41:33;21.40;99.90
23156;DHT22;11746;50.876;4.246;2023-09-18T11:46:49;21.90;99.90
23156;DHT22;11746;50.876;4.246;2023-09-18T11:49:22;22.20;99.90
23156;DHT22;11746;50.876;4.246;2023-09-18T11:51:48;22.30;99.90
23156;DHT22;11746;50.876;4.246;2023-09-18T11:54:17;22.40;99.90
23156;DHT22;11746;50.876;4.246;2023-09-18T11:56:45;22.40;99.90
23156;DHT22;11746;50.876;4.246;2023-09-18T11:59:13;22.40;99.90
23156;DHT22;11746;50.876;4.246;2023-09-18T12:01:39;22.90;99.90
23156;DHT22;11746;50.876;4.246;2023-09-18T12:04:12;23.10;99.90
23156;DHT22;11746;50.876;4.246;2023-09-18T12:06:41;23.20;99.90
23156;DHT22;11746;50.876;4.246;2023-09-18T12:09:07;23.10;99.90
23156;DHT22;11746;50.876;4.246;2023-09-18T12:11:34;23.30;99.90
23156;DHT22;11746;50.876;4.246;2023-09-18T12:14:03;23.40;99.90
23156;DHT22;11746;50.876;4.246;2023-09-18T12:16:29;23.70;99.90
23156;DHT22;11746;50.876;4.246;2023-09-18T12:18:57;23.60;99.90
23156;DHT22;11746;50.876;4.246;2023-09-18T12:21:27;23.70;99.90
23156;DHT22;11746;50.876;4.246;2023-09-18T12:23:53;23.30;99.90
23156;DHT22;11746;50.876;4.246;2023-09-18T12:26:19;23.50;99.90
23156;DHT22;11746;50.876;4.246;2023-09-18T12:28:45;23.40;99.90
23156;DHT22;11746;50.876;4.246;2023-09-18T12:31:15;23.50;99.90
23156;DHT22;11746;50.876;4.246;2023-09-18T12:33:43;23.90;99.90
23156;DHT22;11746;50.876;4.246;2023-09-18T12:36:18;24.40;99.90
23156;DHT22;11746;50.876;4.246;2023-09-18T12:38:55;24.00;99.90
23156;DHT22;11746;50.876;4.246;2023-09-18T12:41:21;23.80;99.90
23156;DHT22;11746;50.876;4.246;2023-09-18T12:43:47;23.80;99.90
23156;DHT22;11746;50.876;4.246;2023-09-18T12:46:13;24.00;99.90
23156;DHT22;11746;50.876;4.246;2023-09-18T12:48:40;24.50;99.90
23156;DHT22;11746;50.876;4.246;2023-09-18T12:51:14;25.00;99.90
23156;DHT22;11746;50.876;4.246;2023-09-18T12:53:41;25.10;99.90
23156;DHT22;11746;50.876;4.246;2023-09-18T12:56:14;25.10;99.90
23156;DHT22;11746;50.876;4.246;2023-09-18T12:58:43;24.80;99.90
23156;DHT22;11746;50.876;4.246;2023-09-18T13:01:10;25.20;99.90
23156;DHT22;11746;50.876;4.246;2023-09-18T13:03:46;25.60;99.90
23156;DHT22;11746;50.876;4.246;2023-09-18T13:06:18;25.50;99.90
23156;DHT22;11746;50.876;4.246;2023-09-18T13:08:47;25.60;99.90
23156;DHT22;11746;50.876;4.246;2023-09-18T13:11:13;25.60;99.90
23156;DHT22;11746;50.876;4.246;2023-09-18T13:13:42;25.90;99.90
23156;DHT22;11746;50.876;4.246;2023-09-18T13:16:11;25.60;99.90
23156;DHT22;11746;50.876;4.246;2023-09-18T13:18:39;25.70;99.90
23156;DHT22;11746;50.876;4.246;2023-09-18T13:21:11;25.60;99.90
23156;DHT22;11746;50.876;4.246;2023-09-18T13:23:39;25.80;99.90
23156;DHT22;11746;50.876;4.246;2023-09-18T13:26:06;26.20;99.90
23156;DHT22;11746;50.876;4.246;2023-09-18T13:28:33;26.30;99.90
23156;DHT22;11746;50.876;4.246;2023-09-18T13:31:02;25.90;99.90
23156;DHT22;11746;50.876;4.246;2023-09-18T13:33:30;25.50;99.90
23156;DHT22;11746;50.876;4.246;2023-09-18T13:35:58;25.60;99.90
23156;DHT22;11746;50.876;4.246;2023-09-18T13:38:27;25.50;99.90
23156;DHT22;11746;50.876;4.246;2023-09-18T13:40:54;26.00;99.90
23156;DHT22;11746;50.876;4.246;2023-09-18T13:43:20;26.20;99.90
23156;DHT22;11746;50.876;4.246;2023-09-18T13:45:52;25.60;99.90
23156;DHT22;11746;50.876;4.246;2023-09-18T13:48:20;25.40;99.90
23156;DHT22;11746;50.876;4.246;2023-09-18T13:50:49;25.20;99.90
23156;DHT22;11746;50.876;4.246;2023-09-18T13:53:16;24.90;99.90
23156;DHT22;11746;50.876;4.246;2023-09-18T13:55:42;24.40;99.90
23156;DHT22;11746;50.876;4.246;2023-09-18T13:58:08;23.90;99.90
23156;DHT22;11746;50.876;4.246;2023-09-18T14:00:36;23.80;99.90
23156;DHT22;11746;50.876;4.246;2023-09-18T14:03:02;23.80;99.90
23156;DHT22;11746;50.876;4.246;2023-09-18T14:05:33;23.60;99.90
23156;DHT22;11746;50.876;4.246;2023-09-18T14:08:01;23.50;99.90
23156;DHT22;11746;50.876;4.246;2023-09-18T14:10:28;23.30;99.90
23156;DHT22;11746;50.876;4.246;2023-09-18T14:12:56;23.30;99.90
23156;DHT22;11746;50.876;4.246;2023-09-18T14:15:23;23.10;99.90
23156;DHT22;11746;50.876;4.246;2023-09-18T14:17:49;22.90;99.90
23156;DHT22;11746;50.876;4.246;2023-09-18T14:20:14;22.80;99.90
23156;DHT22;11746;50.876;4.246;2023-09-18T14:22:43;22.70;99.90
23156;DHT22;11746;50.876;4.246;2023-09-18T14:25:11;22.60;99.90
23156;DHT22;11746;50.876;4.246;2023-09-18T14:27:37;22.60;99.90
23156;DHT22;11746;50.876;4.246;2023-09-18T14:30:04;22.10;99.90
23156;DHT22;11746;50.876;4.246;2023-09-18T14:32:32;21.60;99.90
23156;DHT22;11746;50.876;4.246;2023-09-18T14:35:02;20.90;99.90
23156;DHT22;11746;50.876;4.246;2023-09-18T14:37:28;20.20;99.90
23156;DHT22;11746;50.876;4.246;2023-09-18T14:39:54;19.50;99.90
23156;DHT22;11746;50.876;4.246;2023-09-18T14:42:20;19.10;99.90
23156;DHT22;11746;50.876;4.246;2023-09-18T14:44:48;18.80;99.90
23156;DHT22;11746;50.876;4.246;2023-09-18T14:47:13;18.60;99.90
23156;DHT22;11746;50.876;4.246;2023-09-18T14:49:43;18.50;99.90
23156;DHT22;11746;50.876;4.246;2023-09-18T14:52:15;18.60;99.90
23156;DHT22;11746;50.876;4.246;2023-09-18T14:54:42;18.70;99.90
23156;DHT22;11746;50.876;4.246;2023-09-18T14:57:08;18.60;99.90
23156;DHT22;11746;50.876;4.246;2023-09-18T14:59:36;18.70;99.90
23156;DHT22;11746;50.876;4.246;2023-09-18T15:02:05;18.80;99.90
23156;DHT22;11746;50.876;4.246;2023-09-18T15:04:32;19.00;99.90
23156;DHT22;11746;50.876;4.246;2023-09-18T15:06:59;19.10;99.90
23156;DHT22;11746;50.876;4.246;2023-09-18T15:09:27;19.60;99.90
23156;DHT22;11746;50.876;4.246;2023-09-18T15:11:52;20.90;99.90
23156;DHT22;11746;50.876;4.246;2023-09-18T15:14:20;21.90;99.90
23156;DHT22;11746;50.876;4.246;2023-09-18T15:16:46;22.60;99.90
23156;DHT22;11746;50.876;4.246;2023-09-18T15:19:12;23.30;99.90
23156;DHT22;11746;50.876;4.246;2023-09-18T15:21:39;23.30;99.90
23156;DHT22;11746;50.876;4.246;2023-09-18T15:24:10;23.50;99.90
23156;DHT22;11746;50.876;4.246;2023-09-18T15:26:36;22.90;99.90
23156;DHT22;11746;50.876;4.246;2023-09-18T15:29:04;22.40;99.90
23156;DHT22;11746;50.876;4.246;2023-09-18T15:31:33;21.90;99.90
23156;DHT22;11746;50.876;4.246;2023-09-18T15:33:59;21.30;99.90
23156;DHT22;11746;50.876;4.246;2023-09-18T15:36:24;21.00;99.90
23156;DHT22;11746;50.876;4.246;2023-09-18T15:38:50;20.90;99.90
23156;DHT22;11746;50.876;4.246;2023-09-18T15:41:19;20.80;99.90
23156;DHT22;11746;50.876;4.246;2023-09-18T15:43:46;20.70;99.90
23156;DHT22;11746;50.876;4.246;2023-09-18T15:46:14;21.80;99.90
23156;DHT22;11746;50.876;4.246;2023-09-18T15:48:43;22.70;99.90
23156;DHT22;11746;50.876;4.246;2023-09-18T15:51:09;23.10;99.90
23156;DHT22;11746;50.876;4.246;2023-09-18T15:53:38;23.90;99.90
23156;DHT22;11746;50.876;4.246;2023-09-18T15:56:06;23.90;99.90